Time;durP1;ratioP1;P1;durP2;ratioP2;P2;SDS_P1;SDS_P2;PMS_P1;PMS_P2;Temp;Humidity;BMP_temperature;BMP_pressure;BME280_temperature;BME280_humidity;BME280_pressure;Samples;Min_cycle;Max_cycle;Signal;HPM_P1;HPM_P2
2022/08/14 00:00:16;;;;;;;27.00;14.90;;;;;;;19.72;84.93;100361.90;107387;1247;63862;-64
2022/08/14 00:03:03;;;;;;;21.10;14.10;;;;;;;19.68;84.91;100361.84;107389;1247;72946;-64
2022/08/14 00:05:32;;;;;;;18.40;14.60;;;;;;;19.66;85.31;100363.64;107523;1247;60963;-64
2022/08/14 00:08:03;;;;;;;21.90;14.90;;;;;;;19.64;85.43;100366.31;107531;1248;73155;-64
2022/08/14 00:10:42;;;;;;;19.60;14.50;;;;;;;19.60;85.45;100363.65;107479;1247;61658;-61
2022/08/14 00:13:23;;;;;;;23.60;15.40;;;;;;;19.53;85.62;100364.33;107384;1247;60892;-64
2022/08/14 00:15:53;;;;;;;20.30;14.70;;;;;;;19.49;85.71;100366.92;107424;1247;74899;-63
2022/08/14 00:18:26;;;;;;;22.70;15.90;;;;;;;19.46;86.66;100363.41;107461;1247;72200;-63
2022/08/14 00:21:15;;;;;;;18.90;14.30;;;;;;;19.42;86.74;100359.45;107285;1247;70185;-64
2022/08/14 00:23:44;;;;;;;21.50;15.20;;;;;;;19.41;86.59;100361.05;107282;1247;62808;-64
2022/08/14 00:26:23;;;;;;;20.40;14.40;;;;;;;19.39;86.62;100359.63;107309;1247;59564;-65
2022/08/14 00:28:52;;;;;;;20.40;14.40;;;;;;;19.41;86.70;100366.52;107411;1247;61056;-64
2022/08/14 00:31:22;;;;;;;22.00;15.10;;;;;;;19.42;86.96;100362.52;107216;1250;73185;-62
2022/08/14 00:34:11;;;;;;;19.50;14.50;;;;;;;19.44;86.97;100360.50;107417;1247;61399;-65
2022/08/14 00:37:00;;;;;;;20.40;13.60;;;;;;;19.42;86.82;100361.45;107368;1247;70941;-60
2022/08/14 00:39:29;;;;;;;20.00;14.90;;;;;;;19.39;86.73;100364.60;107434;1248;62880;-61
2022/08/14 00:41:58;;;;;;;17.10;13.50;;;;;;;19.38;86.71;100367.23;107332;1248;59612;-62
2022/08/14 00:44:29;;;;;;;20.80;14.30;;;;;;;19.37;86.60;100368.13;107284;1249;59603;-65
2022/08/14 00:47:07;;;;;;;21.30;15.60;;;;;;;19.38;86.19;100370.17;107161;1248;73819;-63
2022/08/14 00:49:38;;;;;;;20.50;14.90;;;;;;;19.39;85.90;100366.04;107481;1247;60773;-65
2022/08/14 00:52:13;;;;;;;21.50;14.80;;;;;;;19.33;87.10;100364.71;107388;1248;71544;-67
2022/08/14 00:54:51;;;;;;;20.20;14.30;;;;;;;19.33;87.65;100363.12;107675;1247;73777;-65
2022/08/14 00:57:29;;;;;;;17.90;14.10;;;;;;;19.36;87.25;100362.35;107686;1247;59561;-65
2022/08/14 01:00:00;;;;;;;19.80;14.50;;;;;;;19.38;86.89;100364.71;107662;1247;60479;-61
2022/08/14 01:02:29;;;;;;;20.60;15.10;;;;;;;19.39;86.74;100367.22;107710;1248;64491;-66
2022/08/14 01:04:59;;;;;;;21.20;15.70;;;;;;;19.40;86.73;100370.46;107761;1248;62955;-64
2022/08/14 01:07:29;;;;;;;18.90;14.40;;;;;;;19.39;86.69;100369.57;107887;1247;69752;-64
2022/08/14 01:10:07;;;;;;;21.60;15.10;;;;;;;19.39;86.76;100372.95;107562;1247;62865;-64
2022/08/14 01:12:40;;;;;;;22.60;14.70;;;;;;;19.38;86.57;100376.37;107488;1247;63898;-64
2022/08/14 01:15:10;;;;;;;20.60;14.60;;;;;;;19.39;86.56;100375.60;107530;1247;60758;-66
2022/08/14 01:23:19;;;;;;;21.00;15.50;;;;;;;19.30;86.99;100376.55;107447;1247;69623;-65
2022/08/14 01:25:50;;;;;;;22.60;14.80;;;;;;;19.27;87.52;100378.98;107389;1247;72897;-65
2022/08/14 01:28:21;;;;;;;18.50;14.80;;;;;;;19.29;87.67;100381.30;107473;1247;59611;-64
2022/08/14 01:31:14;;;;;;;22.30;15.30;;;;;;;19.29;87.94;100379.31;107397;1247;61128;-63
2022/08/14 01:33:49;;;;;;;21.80;15.80;;;;;;;19.29;87.83;100374.91;107377;1247;74073;-63
2022/08/14 01:36:38;;;;;;;22.70;15.50;;;;;;;19.31;87.57;100377.14;107491;1247;73179;-65
2022/08/14 01:39:14;;;;;;;20.50;15.10;;;;;;;19.29;87.44;100374.15;107416;1247;60213;-64
2022/08/14 01:41:54;;;;;;;21.20;15.00;;;;;;;19.25;87.15;100375.59;107471;1247;62387;-68
2022/08/14 01:44:28;;;;;;;21.90;15.30;;;;;;;19.19;87.58;100373.12;107251;1248;62185;-64
2022/08/14 01:47:12;;;;;;;23.00;14.80;;;;;;;19.13;87.93;100372.08;107479;1246;61304;-65
2022/08/14 01:49:53;;;;;;;23.60;15.40;;;;;;;19.07;88.18;100368.46;107432;1247;63438;-64
2022/08/14 01:52:35;;;;;;;23.50;15.50;;;;;;;19.04;88.39;100371.45;107481;1247;61631;-64
2022/08/14 01:55:30;;;;;;;21.60;15.20;;;;;;;19.00;88.25;100373.09;107416;1247;70095;-64
2022/08/14 01:58:00;;;;;;;18.20;14.60;;;;;;;19.00;88.46;100372.98;107508;1247;73773;-64
2022/08/14 02:00:53;;;;;;;25.60;15.90;;;;;;;18.98;88.24;100371.21;107434;1247;64303;-63
2022/08/14 02:03:29;;;;;;;26.40;16.50;;;;;;;18.95;88.64;100368.21;107537;1247;61704;-63
2022/08/14 02:06:01;;;;;;;23.00;15.80;;;;;;;18.93;88.61;100362.08;107507;1247;74456;-63
2022/08/14 02:08:50;;;;;;;21.50;15.30;;;;;;;18.89;88.24;100353.60;107418;1248;61955;-65
2022/08/14 02:11:24;;;;;;;20.70;15.40;;;;;;;18.83;87.51;100348.80;107435;1247;59869;-62
2022/08/14 02:13:58;;;;;;;20.00;16.40;;;;;;;18.74;87.71;100342.92;107391;1249;62297;-64
2022/08/14 02:16:39;;;;;;;21.00;15.50;;;;;;;18.66;89.51;100344.14;107456;1247;58797;-65
2022/08/14 02:19:14;;;;;;;19.10;15.10;;;;;;;18.63;89.69;100346.86;107418;1247;61399;-63
2022/08/14 02:21:45;;;;;;;23.50;16.70;;;;;;;18.63;89.77;100346.13;107377;1247;75034;-66
2022/08/14 02:24:20;;;;;;;23.20;15.80;;;;;;;18.64;89.59;100341.55;107233;1247;73099;-65
2022/08/14 02:27:10;;;;;;;27.30;18.00;;;;;;;18.65;89.14;100340.02;107398;1247;61430;-66
2022/08/14 02:29:58;;;;;;;24.20;16.40;;;;;;;18.63;90.11;100340.71;107242;1248;74236;-64
2022/08/14 02:32:33;;;;;;;22.70;16.40;;;;;;;18.56;89.89;100340.78;107390;1247;59598;-64
2022/08/14 02:35:12;;;;;;;19.20;14.60;;;;;;;18.51;89.55;100341.27;107356;1247;59513;-63
2022/08/14 02:37:42;;;;;;;22.00;15.60;;;;;;;18.45;89.84;100342.25;107299;1248;62962;-64
2022/08/14 02:40:17;;;;;;;;;;;;;;;18.45;89.99;100343.44;107299;1248;72586;-63
2022/08/14 02:42:47;;;;;;;21.60;15.90;;;;;;;18.45;89.89;100341.36;107370;1247;60287;-63
2022/08/14 02:45:30;;;;;;;21.10;15.90;;;;;;;18.45;89.72;100335.90;107145;1248;74329;-64
2022/08/14 02:48:06;;;;;;;21.80;15.60;;;;;;;18.43;89.78;100335.77;107317;1247;59559;-65
2022/08/14 02:50:55;;;;;;;24.00;17.20;;;;;;;18.40;90.03;100343.85;107278;1247;60335;-65
2022/08/14 02:53:31;;;;;;;23.10;17.10;;;;;;;18.40;89.83;100340.91;107554;1246;64503;-65
2022/08/14 02:56:06;;;;;;;24.20;16.60;;;;;;;18.39;90.27;100337.32;107257;1248;71876;-63
2022/08/14 02:59:00;;;;;;;25.00;17.60;;;;;;;18.35;90.93;100336.45;107298;1248;70818;-63
2022/08/14 03:01:34;;;;;;;25.00;18.00;;;;;;;18.31;90.47;100336.23;107231;1249;73520;-63
2022/08/14 03:04:18;;;;;;;24.60;16.90;;;;;;;18.28;90.70;100341.25;107394;1247;62879;-63
2022/08/14 03:06:49;;;;;;;23.70;16.60;;;;;;;18.30;90.79;100343.71;107356;1247;62313;-62
2022/08/14 03:09:38;;;;;;;24.60;16.50;;;;;;;18.33;90.71;100343.11;107256;1247;73658;-67
2022/08/14 03:12:27;;;;;;;24.40;16.40;;;;;;;18.38;90.71;100342.70;107306;1247;69421;-62
2022/08/14 03:15:05;;;;;;;24.80;17.30;;;;;;;18.41;90.44;100340.58;107353;1247;71563;-63
2022/08/14 03:17:35;;;;;;;23.40;17.90;;;;;;;18.45;90.72;100340.50;107461;1247;63025;-67
2022/08/14 03:20:28;;;;;;;26.80;18.10;;;;;;;18.48;91.76;100346.30;107378;1247;62159;-67
2022/08/14 03:22:59;;;;;;;25.80;18.50;;;;;;;18.49;90.90;100344.11;107446;1247;60522;-64
2022/08/14 03:25:33;;;;;;;25.50;17.10;;;;;;;18.45;89.97;100344.00;107495;1247;75184;-64
2022/08/14 03:28:07;;;;;;;24.30;16.80;;;;;;;18.39;89.16;100345.70;107436;1247;62038;-64
2022/08/14 03:30:57;;;;;;;27.20;18.40;;;;;;;18.29;89.26;100342.80;107416;1248;59540;-65
2022/08/14 03:33:29;;;;;;;24.20;18.40;;;;;;;18.23;89.77;100337.09;107333;1249;63374;-64
2022/08/14 03:36:13;;;;;;;28.60;19.60;;;;;;;18.22;91.19;100337.75;107475;1247;59626;-64
2022/08/14 03:39:06;;;;;;;26.10;19.40;;;;;;;18.24;90.64;100338.25;107410;1248;59533;-63
2022/08/14 03:41:54;;;;;;;26.70;19.50;;;;;;;18.31;91.76;100343.69;107368;1247;74976;-64
2022/08/14 03:44:24;;;;;;;31.70;20.10;;;;;;;18.40;93.77;100345.30;107560;1247;72803;-64
2022/08/14 03:47:12;;;;;;;25.10;18.20;;;;;;;18.51;92.71;100346.09;107387;1247;71308;-63
2022/08/14 03:49:45;;;;;;;27.00;19.00;;;;;;;18.65;92.74;100349.70;107469;1247;72687;-64
2022/08/14 03:52:17;;;;;;;31.50;21.50;;;;;;;18.69;92.86;100346.61;107255;1248;62774;-63
2022/08/14 03:55:11;;;;;;;28.80;19.50;;;;;;;18.74;93.55;100343.73;107516;1247;61823;-65
2022/08/14 03:57:40;;;;;;;25.40;18.70;;;;;;;18.82;93.01;100338.98;107409;1248;65256;-65
2022/08/14 04:00:12;;;;;;;26.70;19.60;;;;;;;18.90;91.93;100335.42;107503;1247;71413;-63
2022/08/14 04:03:04;;;;;;;26.90;20.20;;;;;;;18.97;91.54;100333.38;107334;1247;71053;-65
2022/08/14 04:05:36;;;;;;;;;;;;;;;19.06;91.56;100331.73;107540;1247;74045;-65
2022/08/14 04:08:17;;;;;;;26.10;17.90;;;;;;;19.15;92.22;100329.23;107392;1247;63309;-64
2022/08/14 04:10:59;;;;;;;25.00;18.60;;;;;;;19.20;92.82;100328.27;107522;1247;58463;-65
2022/08/14 04:13:33;;;;;;;28.50;20.10;;;;;;;19.22;92.84;100328.62;107573;1247;62986;-64
2022/08/14 04:16:13;;;;;;;27.00;19.00;;;;;;;19.22;92.63;100333.30;107461;1248;69965;-65
2022/08/14 04:18:51;;;;;;;25.40;18.70;;;;;;;19.31;92.57;100337.39;107445;1247;70027;-65
2022/08/14 04:21:23;;;;;;;29.60;20.30;;;;;;;19.36;92.46;100338.68;107438;1247;74028;-65
2022/08/14 04:23:53;;;;;;;27.00;19.50;;;;;;;19.43;92.08;100338.19;107257;1247;57927;-65
2022/08/14 04:26:28;;;;;;;28.90;19.60;;;;;;;19.51;92.35;100333.92;107520;1247;59173;-65
2022/08/14 04:29:12;;;;;;;27.90;19.60;;;;;;;19.60;92.24;100338.31;107397;1249;74062;-65
2022/08/14 04:31:45;;;;;;;27.40;18.60;;;;;;;19.72;91.47;100331.87;107482;1247;70494;-65
2022/08/14 04:34:40;;;;;;;24.70;18.80;;;;;;;19.87;91.16;100333.11;107484;1247;71641;-64
2022/08/14 04:45:48;;;;;;;31.20;19.10;;;;;;;20.22;89.90;100341.11;107449;1248;63511;-68
2022/08/14 04:48:19;;;;;;;28.60;19.30;;;;;;;20.26;89.74;100337.79;107530;1247;60922;-66
2022/08/14 04:51:14;;;;;;;26.10;19.00;;;;;;;20.36;89.50;100340.09;107418;1248;71350;-67
2022/08/14 04:53:47;;;;;;;23.60;18.10;;;;;;;20.52;89.17;100343.98;107415;1247;74895;-67
2022/08/14 04:56:22;;;;;;;33.90;18.40;;;;;;;20.65;88.81;100340.25;107456;1248;59553;-66
2022/08/14 04:59:05;;;;;;;26.00;17.20;;;;;;;20.79;88.24;100338.50;107526;1247;59721;-67
2022/08/14 05:01:43;;;;;;;26.90;18.50;;;;;;;20.93;87.81;100333.44;107500;1248;64377;-66
2022/08/14 05:04:20;;;;;;;22.30;16.90;;;;;;;21.07;86.79;100334.96;107472;1247;61636;-68
2022/08/14 05:06:53;;;;;;;24.90;17.90;;;;;;;21.10;86.64;100331.56;107448;1249;59872;-66
2022/08/14 05:09:23;;;;;;;22.70;17.40;;;;;;;21.19;86.23;100331.16;107478;1248;72795;-64
2022/08/14 05:11:58;;;;;;;20.40;15.90;;;;;;;21.16;86.18;100327.59;107431;1248;62073;-67
2022/08/14 05:14:49;;;;;;;27.10;16.80;;;;;;;21.18;86.07;100325.61;107323;1250;59669;-69
2022/08/14 05:17:27;;;;;;;25.70;17.30;;;;;;;21.20;85.97;100330.89;107423;1247;74121;-65
2022/08/14 05:20:12;;;;;;;24.70;17.40;;;;;;;21.26;85.88;100332.82;107182;1247;72989;-68
2022/08/14 05:23:02;;;;;;;23.30;15.90;;;;;;;21.28;85.92;100331.43;107363;1247;71016;-65
2022/08/14 05:25:31;;;;;;;21.70;16.40;;;;;;;21.39;85.44;100332.91;107159;1250;63564;-67
2022/08/14 05:28:17;;;;;;;24.10;16.30;;;;;;;21.48;85.08;100332.82;107551;1248;62212;-66
2022/08/14 05:31:00;;;;;;;23.70;16.30;;;;;;;21.59;84.93;100332.96;107143;1247;60990;-65
2022/08/14 05:33:33;;;;;;;20.00;15.80;;;;;;;21.71;84.32;100331.43;107331;1247;63900;-65
2022/08/14 05:36:10;;;;;;;23.00;16.30;;;;;;;21.84;83.92;100329.81;107322;1248;72151;-63
2022/08/14 05:38:46;;;;;;;21.30;15.60;;;;;;;21.91;83.43;100329.37;107482;1247;59629;-66
2022/08/14 05:41:18;;;;;;;23.80;15.70;;;;;;;21.95;83.22;100319.86;107415;1247;62475;-64
2022/08/14 05:43:49;;;;;;;22.50;16.80;;;;;;;22.02;83.14;100315.08;107367;1248;59069;-69
2022/08/14 05:46:23;;;;;;;23.80;16.20;;;;;;;22.15;82.62;100319.98;107481;1248;58966;-65
2022/08/14 05:48:56;;;;;;;21.60;15.60;;;;;;;22.25;81.98;100320.65;107592;1247;62919;-66
2022/08/14 05:51:27;;;;;;;19.60;15.80;;;;;;;22.34;81.67;100316.89;107485;1247;72525;-66
2022/08/14 05:53:58;;;;;;;19.80;15.00;;;;;;;22.44;81.36;100318.55;107465;1248;70150;-67
2022/08/14 05:56:41;;;;;;;19.50;15.60;;;;;;;22.54;80.77;100316.98;107462;1247;74787;-67
2022/08/14 05:59:11;;;;;;;24.40;15.50;;;;;;;22.64;80.35;100316.21;107264;1250;62833;-66
2022/08/14 06:01:44;;;;;;;19.60;15.20;;;;;;;22.66;79.78;100318.41;107486;1248;60735;-67
2022/08/14 06:04:13;;;;;;;19.80;15.30;;;;;;;22.66;79.59;100317.73;107496;1247;67115;-67
2022/08/14 06:06:43;;;;;;;21.00;15.20;;;;;;;22.74;79.40;100319.52;107467;1247;72963;-67
2022/08/14 06:09:12;;;;;;;17.30;14.80;;;;;;;22.84;79.05;100325.69;107578;1246;69434;-69
2022/08/14 06:11:41;;;;;;;20.70;15.50;;;;;;;22.84;79.00;100320.45;107410;1248;74911;-65
2022/08/14 06:14:10;;;;;;;20.90;15.50;;;;;;;22.84;79.01;100320.38;107545;1247;57986;-66
2022/08/14 06:16:48;;;;;;;18.10;14.40;;;;;;;22.78;79.08;100319.48;107432;1249;59649;-67
2022/08/14 06:19:20;;;;;;;18.40;15.10;;;;;;;22.85;78.89;100320.73;107400;1250;63823;-65
2022/08/14 06:21:51;;;;;;;21.20;14.80;;;;;;;22.88;78.66;100318.27;107350;1247;72326;-67
2022/08/14 06:24:27;;;;;;;18.90;15.10;;;;;;;22.97;78.31;100320.28;107360;1247;59930;-66
2022/08/14 06:27:04;;;;;;;19.00;14.30;;;;;;;23.09;78.20;100319.90;107412;1248;72497;-65
2022/08/14 06:29:38;;;;;;;20.50;15.40;;;;;;;23.21;77.64;100315.86;107412;1250;59644;-67
2022/08/14 06:32:06;;;;;;;21.80;15.70;;;;;;;23.34;77.20;100318.91;107239;1250;61358;-66
2022/08/14 06:34:55;;;;;;;23.10;14.70;;;;;;;23.40;76.84;100316.90;107263;1250;65459;-66
2022/08/14 06:37:42;;;;;;;24.60;15.60;;;;;;;23.48;76.39;100316.25;107425;1249;73400;-66
2022/08/14 06:40:16;;;;;;;18.90;14.90;;;;;;;23.44;76.28;100315.19;107461;1247;71552;-66
2022/08/14 06:42:58;;;;;;;18.60;15.50;;;;;;;23.43;76.59;100318.58;107584;1250;63945;-66
2022/08/14 06:45:34;;;;;;;21.30;15.40;;;;;;;23.51;76.25;100313.79;107501;1247;61415;-70
2022/08/14 06:48:12;;;;;;;17.90;13.90;;;;;;;23.62;75.99;100314.42;107395;1247;59581;-67
2022/08/14 06:50:46;;;;;;;19.50;13.90;;;;;;;23.72;75.58;100313.78;107418;1247;64127;-67
2022/08/14 06:53:18;;;;;;;19.80;14.10;;;;;;;23.77;74.99;100315.37;107524;1247;61555;-68
2022/08/14 06:55:49;;;;;;;22.00;15.20;;;;;;;23.84;74.90;100313.60;107404;1250;70595;-68
2022/08/14 06:58:29;;;;;;;22.60;15.10;;;;;;;23.86;74.67;100309.48;107398;1249;63833;-70
2022/08/14 07:06:53;;;;;;;21.10;14.40;;;;;;;24.26;73.35;100302.88;107438;1248;75333;-69
2022/08/14 07:09:27;;;;;;;20.30;13.90;;;;;;;24.31;73.28;100300.86;107559;1247;62625;-69
2022/08/14 07:12:16;;;;;;;18.30;13.90;;;;;;;24.44;72.93;100300.35;107515;1247;60881;-69
2022/08/14 07:15:07;;;;;;;20.60;14.40;;;;;;;24.51;71.78;100303.08;107336;1249;73197;-69
2022/08/14 07:17:47;;;;;;;19.50;13.70;;;;;;;24.49;71.82;100293.80;107483;1247;63532;-70
2022/08/14 07:20:21;;;;;;;15.30;13.00;;;;;;;24.55;71.71;100296.10;107398;1250;59278;-69
2022/08/14 07:23:05;;;;;;;17.20;13.40;;;;;;;24.60;71.57;100292.23;107477;1247;64083;-69
2022/08/14 07:25:40;;;;;;;18.50;14.20;;;;;;;24.72;71.15;100293.98;107570;1247;60901;-69
2022/08/14 07:28:22;;;;;;;21.40;14.50;;;;;;;24.81;70.50;100288.55;107291;1249;69743;-70
2022/08/14 07:30:56;;;;;;;18.80;14.40;;;;;;;24.85;70.23;100282.28;107555;1247;73308;-70
2022/08/14 07:33:44;;;;;;;17.80;12.80;;;;;;;24.91;70.27;100277.96;107368;1247;61898;-67
2022/08/14 07:36:20;;;;;;;19.90;14.80;;;;;;;25.04;69.81;100274.36;107471;1247;61927;-70
2022/08/14 07:39:01;;;;;;;20.30;13.80;;;;;;;25.14;69.35;100280.11;107322;1249;74617;-69
2022/08/14 07:41:42;;;;;;;19.00;14.30;;;;;;;25.23;68.78;100281.15;107441;1247;73745;-67
2022/08/14 07:44:12;;;;;;;20.30;13.90;;;;;;;25.26;68.69;100277.84;107401;1248;60597;-66
2022/08/14 07:47:00;;;;;;;22.00;13.80;;;;;;;25.38;68.02;100272.84;107421;1249;62482;-69
2022/08/14 07:49:33;;;;;;;18.30;13.20;;;;;;;25.47;68.07;100276.11;107451;1249;62050;-68
2022/08/14 07:52:02;;;;;;;21.80;14.10;;;;;;;25.58;67.65;100277.70;107689;1247;58514;-67
2022/08/14 07:54:31;;;;;;;19.00;13.60;;;;;;;25.69;67.07;100281.84;107426;1247;74428;-70
2022/08/14 07:57:02;;;;;;;19.10;13.50;;;;;;;25.75;66.65;100274.92;107368;1250;71995;-69
2022/08/14 07:59:40;;;;;;;20.20;13.70;;;;;;;25.89;66.27;100273.55;107454;1248;69765;-70
2022/08/14 08:02:16;;;;;;;19.70;13.50;;;;;;;25.92;66.10;100273.68;107434;1250;63669;-69
2022/08/14 08:04:55;;;;;;;20.00;13.20;;;;;;;26.05;65.35;100275.41;107439;1247;59627;-69
2022/08/14 08:07:30;;;;;;;17.10;13.20;;;;;;;26.23;65.13;100272.12;107482;1247;59976;-67
2022/08/14 08:13:22;;;;;;;18.00;12.90;;;;;;;26.61;63.44;100267.21;107370;1247;71916;-69
2022/08/14 08:15:56;;;;;;;18.70;13.90;;;;;;;26.73;63.39;100262.11;107277;1250;70821;-71
2022/08/14 08:18:26;;;;;;;16.20;12.40;;;;;;;26.76;62.89;100265.58;107356;1249;62388;-68
2022/08/14 08:20:58;;;;;;;17.10;14.40;;;;;;;26.74;62.66;100261.67;107302;1250;59591;-69
2022/08/14 08:23:32;;;;;;;18.80;13.90;;;;;;;26.72;63.18;100256.68;107440;1247;60310;-68
2022/08/14 08:26:10;;;;;;;15.90;12.60;;;;;;;26.76;62.75;100249.88;107528;1247;64688;-70
2022/08/14 08:28:41;;;;;;;19.50;14.60;;;;;;;26.83;62.76;100253.34;107407;1247;71574;-67
2022/08/14 08:31:11;;;;;;;18.20;14.90;;;;;;;26.79;62.52;100247.18;107516;1247;60860;-69
2022/08/14 08:33:42;;;;;;;17.80;14.20;;;;;;;26.79;62.79;100247.27;107464;1247;73913;-68
2022/08/14 08:36:17;;;;;;;17.50;13.70;;;;;;;26.91;62.48;100243.25;107266;1248;61711;-67
2022/08/14 08:38:49;;;;;;;18.00;14.10;;;;;;;26.92;62.09;100239.36;107352;1250;58624;-68
2022/08/14 08:41:47;;;;;;;22.60;14.30;;;;;;;27.02;62.30;100239.02;107460;1249;63860;-68
2022/08/14 08:44:28;;;;;;;19.90;14.60;;;;;;;27.13;61.67;100242.27;107417;1247;61716;-68
2022/08/14 08:47:04;;;;;;;19.50;13.50;;;;;;;27.14;61.28;100233.67;107439;1247;69685;-68
2022/08/14 08:49:41;;;;;;;;;;;;;;;27.22;61.48;100231.03;107536;1247;64300;-69
2022/08/14 08:52:30;;;;;;;17.90;12.70;;;;;;;27.39;60.88;100226.38;107488;1247;59488;-69
2022/08/14 08:54:59;;;;;;;;;;;;;;;27.46;60.73;100225.18;107355;1247;62380;-70
2022/08/14 08:57:36;;;;;;;15.20;12.00;;;;;;;27.56;60.49;100220.96;107406;1250;64218;-68
2022/08/14 09:00:15;;;;;;;17.30;13.30;;;;;;;27.63;60.31;100221.33;107409;1249;60857;-67
2022/08/14 09:03:09;;;;;;;23.10;13.60;;;;;;;27.69;59.85;100220.30;107450;1247;59490;-68
2022/08/14 09:06:02;;;;;;;19.60;13.30;;;;;;;27.73;59.96;100218.20;107452;1247;73967;-69
2022/08/14 09:08:51;;;;;;;27.70;14.70;;;;;;;27.74;59.58;100215.65;107314;1250;59938;-67
2022/08/14 09:11:23;;;;;;;17.40;12.90;;;;;;;27.77;59.63;100209.92;107338;1250;59625;-69
2022/08/14 09:13:54;;;;;;;17.90;13.80;;;;;;;27.94;59.27;100205.11;107400;1249;63865;-70
2022/08/14 09:16:24;;;;;;;18.10;13.70;;;;;;;28.19;57.97;100200.14;107505;1247;61701;-70
2022/08/14 09:18:54;;;;;;;18.80;13.90;;;;;;;28.31;57.36;100201.90;107448;1249;59639;-68
2022/08/14 09:21:26;;;;;;;19.90;13.80;;;;;;;28.44;57.42;100193.67;107405;1248;73925;-70
2022/08/14 09:24:00;;;;;;;18.90;13.70;;;;;;;28.53;56.80;100191.73;107404;1250;59671;-70
2022/08/14 09:26:50;;;;;;;14.40;12.80;;;;;;;28.43;56.69;100190.64;107340;1247;60665;-67
2022/08/14 09:29:19;;;;;;;18.10;13.20;;;;;;;28.38;56.06;100191.30;107658;1249;63493;-70
2022/08/14 09:31:55;;;;;;;18.70;13.10;;;;;;;28.50;55.38;100181.64;107385;1247;72765;-67
2022/08/14 09:34:53;;;;;;;16.60;13.00;;;;;;;28.38;54.76;100183.49;107455;1247;59607;-68
2022/08/14 09:38:05;;;;;;;18.50;12.80;;;;;;;28.54;55.10;100179.45;107617;1247;73780;-69
2022/08/14 09:41:26;;;;;;;23.30;13.60;;;;;;;28.78;54.52;100177.27;107279;1247;61685;-67
2022/08/14 09:44:32;;;;;;;18.10;12.90;;;;;;;29.27;53.71;100166.98;107473;1247;60746;-69
2022/08/14 09:47:01;;;;;;;16.90;12.60;;;;;;;29.45;52.19;100159.02;107408;1249;63651;-69
2022/08/14 09:49:34;;;;;;;21.20;13.30;;;;;;;29.35;52.14;100156.46;107425;1248;72639;-67
2022/08/14 09:52:12;;;;;;;19.60;12.90;;;;;;;29.38;51.81;100146.77;107418;1250;60335;-69
2022/08/14 09:55:03;;;;;;;18.40;12.40;;;;;;;29.71;51.84;100147.97;107506;1247;63269;-69
2022/08/14 09:57:34;;;;;;;18.80;13.00;;;;;;;29.91;51.47;100152.84;107323;1250;59605;-70
2022/08/14 10:00:17;;;;;;;17.50;12.40;;;;;;;30.04;50.96;100162.35;107462;1250;57906;-69
2022/08/14 10:03:01;;;;;;;19.30;12.00;;;;;;;29.93;49.31;100162.23;107360;1250;74805;-68
2022/08/14 10:05:35;;;;;;;19.80;12.20;;;;;;;29.84;49.56;100159.86;107397;1249;61903;-69
2022/08/14 10:08:20;;;;;;;17.60;12.30;;;;;;;29.74;50.15;100155.77;107262;1247;70518;-71
2022/08/14 10:10:53;;;;;;;18.10;12.30;;;;;;;30.05;49.47;100151.92;107449;1248;74836;-69
2022/08/14 10:13:31;;;;;;;20.50;11.80;;;;;;;30.12;49.23;100151.73;107428;1250;59626;-69
2022/08/14 10:16:25;;;;;;;19.20;11.60;;;;;;;30.88;47.20;100143.57;107427;1247;61451;-70
2022/08/14 10:19:08;;;;;;;22.00;14.20;;;;;;;31.21;47.05;100139.35;107336;1250;74033;-70
2022/08/14 10:21:40;;;;;;;17.40;12.80;;;;;;;31.61;45.90;100139.50;107459;1247;71203;-70
2022/08/14 10:24:46;;;;;;;27.30;21.50;;;;;;;31.64;45.38;100135.85;107273;1250;59235;-69
2022/08/14 10:27:22;;;;;;;22.20;16.50;;;;;;;31.76;45.25;100129.26;107346;1247;62318;-71
2022/08/14 10:29:59;;;;;;;15.30;11.60;;;;;;;31.91;44.28;100124.03;107338;1246;61344;-71
2022/08/14 10:32:28;;;;;;;18.40;12.70;;;;;;;32.11;44.17;100114.52;107273;1250;59527;-68
2022/08/14 10:35:11;;;;;;;19.00;9.80;;;;;;;32.37;43.50;100106.71;107218;1250;63804;-68
2022/08/14 10:37:48;;;;;;;17.90;12.00;;;;;;;32.50;42.48;100111.63;107220;1247;62626;-69
2022/08/14 10:40:30;;;;;;;12.90;9.90;;;;;;;32.51;42.54;100108.66;107144;1250;60334;-69
2022/08/14 10:43:24;;;;;;;14.30;10.20;;;;;;;32.99;41.24;100100.60;107342;1247;62464;-70
2022/08/14 10:46:00;;;;;;;16.70;11.30;;;;;;;32.69;41.15;100099.55;107391;1247;61387;-70
2022/08/14 10:49:01;;;;;;;18.00;14.00;;;;;;;32.22;43.46;100095.23;107315;1248;60305;-71
2022/08/14 10:51:35;;;;;;;19.30;12.30;;;;;;;32.61;43.44;100089.81;107103;1250;75414;-69
2022/08/14 10:54:10;;;;;;;16.80;12.90;;;;;;;33.11;43.13;100095.25;107338;1248;61365;-69
2022/08/14 10:57:23;;;;;;;17.90;13.00;;;;;;;32.72;42.70;100089.96;107418;1247;69733;-70
2022/08/14 10:59:59;;;;;;;19.50;12.80;;;;;;;32.68;42.44;100085.52;107518;1247;64123;-68
2022/08/14 11:02:36;;;;;;;15.70;9.90;;;;;;;32.87;42.74;100076.91;107501;1247;61676;-70
2022/08/14 11:05:25;;;;;;;16.60;10.70;;;;;;;33.47;41.71;100070.15;107281;1250;58421;-69
2022/08/14 11:08:01;;;;;;;12.20;10.40;;;;;;;34.01;41.14;100061.59;107392;1247;73788;-70
2022/08/14 11:11:00;;;;;;;14.40;10.50;;;;;;;34.33;39.82;100050.08;107309;1247;72053;-69
2022/08/14 11:13:30;;;;;;;14.70;11.00;;;;;;;34.58;39.49;100048.41;107112;1247;71449;-69
2022/08/14 11:16:01;;;;;;;19.30;12.30;;;;;;;33.88;39.98;100050.41;107239;1250;62889;-69
2022/08/14 11:18:31;;;;;;;17.10;11.40;;;;;;;33.46;41.07;100052.98;107387;1247;61309;-68
2022/08/14 11:21:08;;;;;;;26.30;17.00;;;;;;;33.03;41.62;100046.27;107510;1250;61763;-71
2022/08/14 11:23:38;;;;;;;24.30;17.00;;;;;;;33.78;40.65;100046.11;107309;1248;74978;-70
2022/08/14 11:26:13;;;;;;;27.90;20.70;;;;;;;34.03;39.75;100032.42;107480;1248;72332;-73
2022/08/14 11:28:48;;;;;;;35.90;24.90;;;;;;;33.83;39.04;100025.61;106168;1247;1700237;-70
2022/08/14 11:31:22;;;;;;;122.40;96.20;;;;;;;33.94;38.35;100015.75;107501;1247;63722;-70
2022/08/14 11:33:57;;;;;;;102.40;74.00;;;;;;;34.22;38.19;100015.05;107447;1247;57970;-69
2022/08/14 11:36:28;;;;;;;64.70;49.70;;;;;;;34.47;38.08;100018.89;107585;1247;57785;-69
2022/08/14 11:39:22;;;;;;;74.60;56.00;;;;;;;34.27;38.67;100012.56;107391;1249;63759;-69
2022/08/14 11:42:06;;;;;;;45.70;35.70;;;;;;;33.88;39.43;100006.94;107369;1247;71993;-68
2022/08/14 11:45:03;;;;;;;15.20;10.80;;;;;;;33.09;40.28;100007.39;107477;1247;69895;-68
2022/08/14 11:47:44;;;;;;;14.80;10.30;;;;;;;32.47;41.82;100009.31;107312;1250;63796;-68
2022/08/14 11:50:34;;;;;;;15.60;10.90;;;;;;;32.98;40.64;100018.95;107456;1248;59544;-69
2022/08/14 11:53:25;;;;;;;17.10;9.60;;;;;;;33.42;40.12;100008.95;107381;1250;59611;-67
2022/08/14 11:55:57;;;;;;;17.00;10.90;;;;;;;33.45;39.96;100009.27;107469;1247;63715;-70
2022/08/14 11:58:31;;;;;;;15.90;10.90;;;;;;;33.39;39.71;100001.38;107494;1249;61669;-71
2022/08/14 12:01:07;;;;;;;16.40;10.30;;;;;;;33.20;39.72;99994.27;107565;1247;69856;-65
2022/08/14 12:03:40;;;;;;;18.70;10.90;;;;;;;32.76;40.51;99992.12;107587;1247;72056;-70
2022/08/14 12:06:25;;;;;;;22.90;12.60;;;;;;;32.11;41.69;99984.67;107532;1247;59476;-62
2022/08/14 12:09:07;;;;;;;14.80;9.20;;;;;;;32.24;41.86;99975.21;107566;1247;59859;-70
2022/08/14 12:11:43;;;;;;;13.50;7.80;;;;;;;32.22;41.38;99992.02;107480;1250;63622;-66
2022/08/14 12:14:23;;;;;;;10.10;5.60;;;;;;;30.87;42.10;100013.64;107409;1250;73232;-70